Ana Sayfa
METAR-TAF:

METAR-TAF

Havaalanları :

Schenectady County Airport

Schenectady, New York, Amerika Birleşik Devletleri

Enlem: 42-51N, Boylam: 073-56W, yükseklik: 115 m

Güncel hava durumu gözlemi

Rapor saat 13:48 UTC de 1 saat ve 0 dakika önce yapıldı.
Rüzgar kuzey/kuzeybatıdan 10 kt ve 15 kt'a kadar ani rüzgarlar
Sıcaklık 8°C
Nem 53%
Basınç 1008 hPa
Görüş mesafesi: 24.1 km
3700 ft yükseklikte parçalı bulutlu
4300 ft yükseklikte parçalı bulutlu
7000 ft yükseklikte parçalı çok bulutlu

METAR: KSCH 021348Z 34010G15KT 15SM SCT037 SCT043 BKN070 08/M01 A2978

Saat: 10:48 (14:48 UTC)


TAF: eksik

4.000'den fazla havaalanı için hava durumu gözlemleri ve tahminleri (METAR ve TAF raporları).

Kullanılabilir istasyonlar harita üzerinde sarı ve kırmızı noktalarla gösterilir.

İstasyonun adını görmek için fareyi noktanın üzerinde gezdirin.

Sonrasında hava gözlem ve tahminlerini görmek için tıklayın.

Haritayı değiştirmek için: yaklaştırmak için siyah artı işaretli yeşil düğmeye ve uzaklaştırmak için de eksi işaretli düğmeye hızla tıklayın; bitişik haritalar için yeşil okları kullanın.


METAR-TAF: